createdAt,value
2018-04-24T00:00:51.153Z,31.00
2018-04-24T00:01:51.155Z,32.30
2018-04-24T00:02:51.150Z,30.70
2018-04-24T00:03:51.149Z,31.60
2018-04-24T00:04:51.147Z,31.20
2018-04-24T00:05:51.147Z,31.70
2018-04-24T00:06:51.147Z,30.30
2018-04-24T00:07:51.143Z,31.70
2018-04-24T00:08:51.145Z,31.50
2018-04-24T00:09:51.160Z,31.80
2018-04-24T00:10:51.142Z,33.60
2018-04-24T00:11:51.163Z,31.80
2018-04-24T00:12:51.142Z,31.70
2018-04-24T00:13:51.136Z,32.20
2018-04-24T00:14:51.185Z,32.30
2018-04-24T00:15:51.138Z,32.10
2018-04-24T00:16:51.174Z,32.60
2018-04-24T00:17:51.133Z,33.60
2018-04-24T00:18:51.178Z,33.00
2018-04-24T00:19:51.131Z,32.20
2018-04-24T00:20:51.130Z,31.70
2018-04-24T00:21:51.127Z,31.30
2018-04-24T00:22:51.130Z,32.60
2018-04-24T00:23:51.136Z,33.80
2018-04-24T00:24:51.123Z,34.30
2018-04-24T00:25:51.120Z,33.40
2018-04-24T00:26:51.123Z,33.70
2018-04-24T00:27:51.119Z,32.30
2018-04-24T00:28:51.118Z,30.50
2018-04-24T00:29:51.116Z,29.70
2018-04-24T00:30:51.116Z,30.20
2018-04-24T00:31:51.120Z,32.10
2018-04-24T00:32:51.113Z,30.30
2018-04-24T00:33:51.124Z,30.20
2018-04-24T00:34:51.110Z,31.90
2018-04-24T00:35:51.113Z,32.10
2018-04-24T00:36:51.116Z,32.00
2018-04-24T00:37:51.107Z,31.50
2018-04-24T00:38:51.112Z,31.80
2018-04-24T00:39:51.118Z,30.80
2018-04-24T00:40:51.103Z,30.60
2018-04-24T00:41:51.101Z,33.30
2018-04-24T00:42:51.123Z,32.80
2018-04-24T00:43:51.099Z,31.70
2018-04-24T00:44:51.097Z,33.10
2018-04-24T00:45:51.146Z,32.70
2018-04-24T00:46:51.289Z,33.10
2018-04-24T00:47:51.097Z,33.90
2018-04-24T00:48:51.094Z,33.30
2018-04-24T00:49:51.091Z,33.50
2018-04-24T00:50:51.090Z,32.30
2018-04-24T00:51:51.092Z,32.10
2018-04-24T00:52:51.091Z,33.40
2018-04-24T00:53:51.106Z,32.50
2018-04-24T00:54:51.082Z,31.00
2018-04-24T00:55:51.084Z,32.90
2018-04-24T00:56:51.080Z,31.00
2018-04-24T00:57:51.080Z,32.20
2018-04-24T00:58:51.077Z,32.90
2018-04-24T00:59:51.075Z,32.20
2018-04-24T01:00:51.078Z,32.20
2018-04-24T01:01:51.078Z,32.90
2018-04-24T01:02:51.071Z,31.40
2018-04-24T01:03:51.070Z,33.10
2018-04-24T01:04:51.070Z,33.40
2018-04-24T01:05:51.070Z,33.40
2018-04-24T01:06:51.134Z,33.60
2018-04-24T01:07:51.065Z,32.60
2018-04-24T01:08:51.066Z,32.40
2018-04-24T01:09:51.060Z,32.00
2018-04-24T01:10:51.066Z,32.20
2018-04-24T01:11:51.060Z,32.40
2018-04-24T01:12:51.058Z,32.00
2018-04-24T01:13:51.059Z,33.40
2018-04-24T01:14:51.053Z,32.20
2018-04-24T01:15:51.051Z,32.40
2018-04-24T01:16:51.054Z,33.30
2018-04-24T01:17:51.669Z,34.50
2018-04-24T01:18:51.050Z,34.20
2018-04-24T01:19:51.048Z,33.20
2018-04-24T01:20:51.044Z,32.60
2018-04-24T01:21:51.043Z,32.70
2018-04-24T01:22:51.042Z,33.00
2018-04-24T01:23:51.043Z,32.50
2018-04-24T01:24:51.038Z,33.40
2018-04-24T01:25:51.038Z,33.60
2018-04-24T01:26:51.039Z,35.20
2018-04-24T01:27:51.034Z,34.40
2018-04-24T01:28:51.035Z,31.90
2018-04-24T01:29:51.029Z,34.10
2018-04-24T01:30:51.027Z,33.80
2018-04-24T01:31:51.031Z,34.20
2018-04-24T01:32:51.027Z,34.90
2018-04-24T01:33:51.023Z,34.30
2018-04-24T01:34:51.022Z,33.50
2018-04-24T01:35:51.021Z,34.20
2018-04-24T01:36:51.022Z,33.90
2018-04-24T01:37:51.015Z,34.90
2018-04-24T01:38:51.021Z,36.00
2018-04-24T01:39:51.017Z,35.80
2018-04-24T01:40:51.013Z,34.40
2018-04-24T01:41:51.029Z,35.80
2018-04-24T01:42:51.008Z,35.40
2018-04-24T01:43:51.008Z,36.50
2018-04-24T01:44:51.004Z,36.20
2018-04-24T01:45:51.004Z,36.00
2018-04-24T01:46:51.009Z,34.60
2018-04-24T01:47:50.998Z,34.80
2018-04-24T01:48:50.999Z,35.30
2018-04-24T01:49:50.995Z,36.10
2018-04-24T01:50:50.993Z,35.60
2018-04-24T01:51:50.991Z,35.00
2018-04-24T01:52:50.990Z,34.70
2018-04-24T01:53:50.990Z,35.80
2018-04-24T01:54:50.988Z,35.60
2018-04-24T01:55:50.985Z,36.60
2018-04-24T01:56:50.989Z,36.20
2018-04-24T01:57:50.981Z,35.30
2018-04-24T01:58:50.981Z,35.90
2018-04-24T01:59:50.978Z,36.80
2018-04-24T02:00:50.984Z,34.50
2018-04-24T02:01:50.979Z,35.50
2018-04-24T02:02:50.972Z,35.70
2018-04-24T02:03:50.990Z,34.40
2018-04-24T02:04:50.968Z,33.80
2018-04-24T02:05:50.966Z,33.50
2018-04-24T02:06:50.968Z,35.30
2018-04-24T02:07:50.963Z,35.70
2018-04-24T02:08:50.966Z,35.80
2018-04-24T02:09:50.959Z,36.10
2018-04-24T02:10:50.957Z,35.90
2018-04-24T02:11:50.962Z,35.90
2018-04-24T02:12:50.955Z,36.80
2018-04-24T02:13:50.956Z,35.80
2018-04-24T02:14:50.953Z,37.60
2018-04-24T02:15:50.948Z,36.40
2018-04-24T02:16:50.945Z,35.40
2018-04-24T02:17:50.946Z,36.00
2018-04-24T02:18:50.942Z,35.60
2018-04-24T02:19:50.942Z,34.80
2018-04-24T02:20:50.939Z,35.50
2018-04-24T02:21:50.936Z,35.50
2018-04-24T02:22:50.935Z,37.00
2018-04-24T02:23:50.933Z,36.60
2018-04-24T02:24:50.933Z,36.50
2018-04-24T02:25:50.935Z,37.10
2018-04-24T02:26:50.928Z,37.60
2018-04-24T02:27:50.929Z,37.30
2018-04-24T02:28:50.924Z,37.20
2018-04-24T02:29:50.925Z,39.00
2018-04-24T02:30:50.923Z,36.50
2018-04-24T02:31:50.929Z,36.40
2018-04-24T02:32:50.923Z,37.50
2018-04-24T02:33:50.917Z,36.90
2018-04-24T02:34:50.915Z,36.70
2018-04-24T02:35:50.914Z,36.80
2018-04-24T02:36:50.954Z,37.10
2018-04-24T02:37:50.916Z,36.20
2018-04-24T02:38:50.913Z,36.40
2018-04-24T02:39:50.911Z,35.10
2018-04-24T02:40:50.905Z,35.60
2018-04-24T02:41:50.907Z,34.60
2018-04-24T02:42:50.907Z,37.20
2018-04-24T02:43:50.902Z,36.20
2018-04-24T02:44:50.914Z,38.90
2018-04-24T02:45:50.897Z,36.60
2018-04-24T02:46:51.009Z,36.40
2018-04-24T02:47:50.894Z,36.70
2018-04-24T02:48:50.890Z,35.40
2018-04-24T02:49:50.890Z,34.90
2018-04-24T02:50:50.888Z,38.10
2018-04-24T02:51:50.889Z,38.40
2018-04-24T02:52:50.883Z,37.60
2018-04-24T02:53:50.881Z,38.20
2018-04-24T02:54:50.880Z,36.30
2018-04-24T02:55:50.878Z,36.10
2018-04-24T02:56:50.883Z,36.40
2018-04-24T02:57:50.874Z,36.30
2018-04-24T02:58:50.875Z,37.10
2018-04-24T02:59:50.874Z,37.90
2018-04-24T03:00:50.870Z,37.40
2018-04-24T03:01:50.867Z,37.90
2018-04-24T03:02:50.865Z,38.60
2018-04-24T03:03:50.867Z,39.10
2018-04-24T03:04:50.861Z,37.10
2018-04-24T03:05:50.859Z,36.60
2018-04-24T03:06:50.862Z,35.40
2018-04-24T03:07:50.856Z,36.00
2018-04-24T03:08:50.857Z,36.20
2018-04-24T03:09:50.852Z,38.30
2018-04-24T03:10:50.867Z,38.20
2018-04-24T03:11:50.934Z,39.40
2018-04-24T03:12:50.846Z,37.90
2018-04-24T03:13:50.844Z,37.70
2018-04-24T03:14:50.841Z,38.40
2018-04-24T03:15:50.840Z,38.70
2018-04-24T03:16:50.837Z,37.70
2018-04-24T03:17:50.835Z,37.70
2018-04-24T03:18:50.838Z,36.90
2018-04-24T03:19:50.831Z,38.20
2018-04-24T03:20:51.233Z,37.80
2018-04-24T03:21:50.829Z,39.70
2018-04-24T03:22:50.825Z,40.90
2018-04-24T03:23:50.825Z,38.90
2018-04-24T03:24:50.825Z,38.60
2018-04-24T03:25:50.821Z,38.30
2018-04-24T03:26:50.826Z,36.20
2018-04-24T03:27:50.826Z,37.00
2018-04-24T03:28:50.817Z,36.50
2018-04-24T03:29:50.815Z,38.30
2018-04-24T03:30:50.811Z,39.40
2018-04-24T03:31:50.809Z,39.60
2018-04-24T03:32:50.808Z,39.80
2018-04-24T03:33:50.805Z,40.10
2018-04-24T03:34:50.804Z,38.80
2018-04-24T03:35:50.801Z,39.60
2018-04-24T03:36:50.800Z,37.80
2018-04-24T03:37:50.799Z,39.20
2018-04-24T03:38:50.798Z,40.30
2018-04-24T03:39:50.793Z,37.80
2018-04-24T03:40:50.794Z,39.40
2018-04-24T03:41:50.794Z,39.20
2018-04-24T03:42:50.787Z,38.60
2018-04-24T03:43:50.787Z,37.70
2018-04-24T03:44:50.789Z,38.70
2018-04-24T03:45:50.784Z,38.40
2018-04-24T03:46:50.784Z,38.30
2018-04-24T03:47:50.779Z,39.40
2018-04-24T03:48:50.776Z,38.60
2018-04-24T03:49:50.773Z,41.30
2018-04-24T03:50:50.773Z,39.90
2018-04-24T03:51:51.619Z,38.40
2018-04-24T03:52:50.769Z,39.50
2018-04-24T03:53:50.767Z,41.10
2018-04-24T03:54:50.767Z,40.80
2018-04-24T03:55:50.765Z,40.60
2018-04-24T03:56:50.761Z,39.50
2018-04-24T03:57:50.764Z,38.30
2018-04-24T03:58:50.759Z,40.20
2018-04-24T03:59:50.755Z,40.80
2018-04-24T04:00:50.761Z,43.90
2018-04-24T04:01:50.751Z,42.90
2018-04-24T04:02:50.756Z,43.80
2018-04-24T04:03:50.747Z,42.60
2018-04-24T04:04:50.746Z,41.90
2018-04-24T04:05:50.745Z,43.30
2018-04-24T04:06:50.746Z,43.70
2018-04-24T04:07:50.741Z,42.40
2018-04-24T04:08:50.737Z,43.40
2018-04-24T04:09:50.740Z,45.10
2018-04-24T04:10:50.736Z,45.70
2018-04-24T04:11:50.733Z,42.90
2018-04-24T04:12:50.737Z,45.10
2018-04-24T04:13:50.743Z,45.40
2018-04-24T04:14:50.779Z,42.30
2018-04-24T04:15:50.742Z,44.60
2018-04-24T04:16:50.724Z,42.00
2018-04-24T04:17:50.725Z,45.70
2018-04-24T04:18:50.719Z,44.90
2018-04-24T04:19:50.719Z,47.70
2018-04-24T04:20:50.717Z,47.80
2018-04-24T04:21:50.724Z,53.90
2018-04-24T04:22:50.713Z,52.70
2018-04-24T04:23:50.712Z,59.00
2018-04-24T04:24:50.709Z,60.60
2018-04-24T04:25:50.722Z,63.90
2018-04-24T04:26:50.715Z,64.20
2018-04-24T04:27:50.704Z,59.80
2018-04-24T04:28:50.703Z,55.80
2018-04-24T04:29:50.703Z,51.30
2018-04-24T04:30:50.698Z,52.20
2018-04-24T04:31:50.699Z,50.30
2018-04-24T04:32:50.722Z,47.40
2018-04-24T04:33:50.695Z,47.40
2018-04-24T04:34:50.691Z,47.80
2018-04-24T04:35:50.689Z,47.40
2018-04-24T04:36:50.690Z,46.30
2018-04-24T04:37:50.693Z,46.80
2018-04-24T04:38:50.691Z,46.30
2018-04-24T04:39:50.683Z,45.30
2018-04-24T04:40:50.689Z,46.30
2018-04-24T04:41:50.680Z,46.10
2018-04-24T04:42:50.677Z,44.30
2018-04-24T04:43:50.679Z,44.20
2018-04-24T04:44:50.681Z,45.20
2018-04-24T04:45:50.680Z,45.50
2018-04-24T04:46:50.670Z,45.80
2018-04-24T04:47:50.676Z,50.10
2018-04-24T04:48:50.667Z,48.60
2018-04-24T04:49:50.681Z,49.80
2018-04-24T04:50:50.679Z,51.90
2018-04-24T04:51:50.663Z,49.70
2018-04-24T04:52:50.658Z,48.40
2018-04-24T04:53:50.657Z,50.20
2018-04-24T04:54:50.654Z,50.20
2018-04-24T04:55:50.653Z,50.70
2018-04-24T04:56:50.655Z,52.90
2018-04-24T04:57:50.653Z,52.20
2018-04-24T04:58:50.647Z,53.20
2018-04-24T04:59:50.645Z,54.00
2018-04-24T05:00:50.715Z,52.80
2018-04-24T05:01:50.644Z,54.10
2018-04-24T05:02:50.646Z,53.90
2018-04-24T05:03:50.638Z,54.10
2018-04-24T05:04:50.657Z,53.90
2018-04-24T05:05:50.634Z,54.80
2018-04-24T05:06:50.631Z,55.90
2018-04-24T05:07:50.631Z,54.70
2018-04-24T05:08:50.630Z,54.30
2018-04-24T05:09:50.627Z,52.70
2018-04-24T05:10:50.625Z,55.00
2018-04-24T05:11:50.624Z,53.20
2018-04-24T05:12:50.622Z,49.90
2018-04-24T05:13:50.619Z,49.20
2018-04-24T05:14:50.630Z,46.90
2018-04-24T05:15:50.615Z,44.40
2018-04-24T05:16:50.613Z,46.20
2018-04-24T05:17:50.620Z,46.60
2018-04-24T05:18:50.611Z,47.30
2018-04-24T05:19:50.609Z,47.10
2018-04-24T05:20:50.610Z,48.60
2018-04-24T05:21:50.726Z,51.40
2018-04-24T05:22:50.607Z,49.70
2018-04-24T05:23:50.777Z,50.60
2018-04-24T05:24:50.600Z,49.60
2018-04-24T05:25:50.600Z,48.80
2018-04-24T05:26:50.608Z,49.60
2018-04-24T05:27:50.599Z,49.20
2018-04-24T05:28:50.595Z,47.50
2018-04-24T05:29:50.593Z,47.00
2018-04-24T05:30:50.599Z,46.00
2018-04-24T05:31:50.590Z,46.90
2018-04-24T05:32:50.590Z,47.90
2018-04-24T05:33:50.604Z,43.80
2018-04-24T05:34:50.863Z,41.90
2018-04-24T05:35:50.699Z,43.30
2018-04-24T05:36:50.588Z,42.20
2018-04-24T05:37:50.587Z,40.90
2018-04-24T05:38:50.581Z,39.50
2018-04-24T05:39:50.583Z,38.00
2018-04-24T05:40:50.585Z,38.00
2018-04-24T05:41:50.602Z,37.50
2018-04-24T05:42:50.574Z,37.00
2018-04-24T05:43:50.577Z,37.60
2018-04-24T05:44:50.583Z,36.10
2018-04-24T05:45:50.576Z,35.90
2018-04-24T05:46:50.569Z,34.80
2018-04-24T05:47:50.569Z,36.80
2018-04-24T05:48:50.569Z,35.80
2018-04-24T05:49:50.565Z,36.40
2018-04-24T05:50:50.567Z,36.20
2018-04-24T05:51:50.564Z,37.40
2018-04-24T05:52:50.639Z,36.50
2018-04-24T05:53:50.562Z,37.50
2018-04-24T05:54:51.153Z,37.30
2018-04-24T05:55:50.562Z,38.00
2018-04-24T05:56:50.559Z,39.90
2018-04-24T05:57:50.560Z,38.60
2018-04-24T05:58:50.561Z,37.40
2018-04-24T05:59:50.556Z,37.00
2018-04-24T06:00:50.583Z,37.70
2018-04-24T06:01:50.557Z,37.60
2018-04-24T06:02:50.556Z,36.40
2018-04-24T06:03:50.553Z,36.80
2018-04-24T06:04:50.563Z,35.80
2018-04-24T06:05:50.554Z,34.60
2018-04-24T06:06:50.566Z,35.30
2018-04-24T06:07:50.551Z,34.30
2018-04-24T06:08:50.552Z,35.40
2018-04-24T06:09:50.560Z,34.40
2018-04-24T06:10:50.560Z,33.10
2018-04-24T06:11:50.550Z,32.00
2018-04-24T06:12:50.548Z,32.00
2018-04-24T06:13:50.548Z,30.90
2018-04-24T06:14:50.548Z,31.10
2018-04-24T06:15:50.545Z,29.70
2018-04-24T06:16:50.548Z,29.60
2018-04-24T06:17:50.543Z,28.00
2018-04-24T06:18:50.544Z,28.90
2018-04-24T06:19:50.546Z,29.10
2018-04-24T06:20:50.549Z,28.80
2018-04-24T06:21:50.542Z,28.40
2018-04-24T06:22:50.542Z,28.10
2018-04-24T06:23:50.545Z,28.40
2018-04-24T06:24:50.543Z,29.10
2018-04-24T06:25:50.542Z,29.70
2018-04-24T06:26:50.545Z,29.60
2018-04-24T06:27:50.544Z,27.60
2018-04-24T06:28:50.541Z,25.90
2018-04-24T06:29:50.615Z,26.50
2018-04-24T06:30:50.541Z,25.20
2018-04-24T06:31:50.539Z,26.20
2018-04-24T06:32:50.547Z,25.70
2018-04-24T06:33:50.539Z,25.50
2018-04-24T06:34:50.541Z,26.30
2018-04-24T06:35:50.539Z,25.30
2018-04-24T06:36:50.544Z,25.20
2018-04-24T06:37:50.539Z,26.70
2018-04-24T06:38:50.541Z,25.80
2018-04-24T06:39:50.538Z,25.50
2018-04-24T06:40:50.546Z,27.60
2018-04-24T06:41:50.570Z,26.10
2018-04-24T06:42:50.540Z,25.90
2018-04-24T06:43:50.537Z,25.70
2018-04-24T06:44:50.539Z,24.40
2018-04-24T06:45:50.538Z,24.50
2018-04-24T06:46:50.537Z,24.40
2018-04-24T06:47:50.610Z,23.60
2018-04-24T06:48:50.538Z,23.00
2018-04-24T06:49:50.541Z,23.40
2018-04-24T06:50:50.545Z,23.40
2018-04-24T06:51:50.590Z,22.90
2018-04-24T06:52:50.537Z,23.40
2018-04-24T06:53:50.540Z,22.40
2018-04-24T06:54:50.543Z,23.30
2018-04-24T06:55:50.542Z,23.30
2018-04-24T06:56:50.547Z,23.00
2018-04-24T06:57:50.542Z,22.40
2018-04-24T06:58:50.537Z,21.60
2018-04-24T06:59:50.541Z,22.20
2018-04-24T07:00:50.545Z,21.40
2018-04-24T07:01:50.540Z,21.80
2018-04-24T07:02:50.536Z,20.60
2018-04-24T07:03:50.540Z,20.80
2018-04-24T07:04:50.544Z,19.90
2018-04-24T07:05:50.540Z,21.50
2018-04-24T07:06:50.541Z,20.90
2018-04-24T07:07:50.545Z,19.60
2018-04-24T07:08:50.539Z,20.80
2018-04-24T07:09:50.537Z,19.80
2018-04-24T07:10:50.544Z,18.80
2018-04-24T07:11:50.541Z,17.10
2018-04-24T07:12:50.556Z,16.30
2018-04-24T07:13:50.544Z,18.50
2018-04-24T07:14:50.550Z,16.40
2018-04-24T07:15:50.546Z,16.10
2018-04-24T07:16:50.557Z,16.10
2018-04-24T07:17:50.544Z,16.30
2018-04-24T07:18:50.550Z,16.30
2018-04-24T07:19:50.551Z,16.60
2018-04-24T07:20:50.550Z,15.90
2018-04-24T07:21:50.557Z,16.10
2018-04-24T07:22:50.549Z,17.10
2018-04-24T07:23:50.576Z,15.20
2018-04-24T07:24:50.550Z,14.50
2018-04-24T07:25:50.555Z,10.70
2018-04-24T07:26:50.556Z,10.30
2018-04-24T07:27:50.555Z,10.40
2018-04-24T07:28:50.559Z,13.10
2018-04-24T07:29:50.561Z,10.20
2018-04-24T07:30:50.571Z,9.20
2018-04-24T07:31:50.567Z,10.00
2018-04-24T07:32:50.647Z,6.90
2018-04-24T07:33:50.576Z,9.00
2018-04-24T07:34:50.563Z,7.60
2018-04-24T07:35:50.567Z,6.80
2018-04-24T07:36:50.586Z,6.80
2018-04-24T07:37:50.590Z,7.60
2018-04-24T07:38:50.569Z,7.80
2018-04-24T07:39:50.571Z,7.00
2018-04-24T07:40:50.573Z,7.00
2018-04-24T07:41:50.580Z,7.50
2018-04-24T07:42:50.574Z,7.10
2018-04-24T07:43:50.582Z,6.30
2018-04-24T07:44:50.589Z,6.50
2018-04-24T07:45:50.934Z,6.80
2018-04-24T07:46:50.679Z,7.50
2018-04-24T07:47:50.583Z,6.50
2018-04-24T07:48:50.585Z,7.20
2018-04-24T07:49:50.589Z,7.30
2018-04-24T07:50:50.588Z,7.20
2018-04-24T07:51:50.591Z,7.60
2018-04-24T07:52:50.760Z,8.20
2018-04-24T07:53:50.594Z,7.20
2018-04-24T07:54:50.597Z,7.40
2018-04-24T07:55:50.597Z,6.80
2018-04-24T07:56:50.599Z,6.60
2018-04-24T07:57:50.734Z,7.90
2018-04-24T07:58:50.606Z,8.30
2018-04-24T07:59:50.612Z,8.20
2018-04-24T08:00:50.609Z,7.10
2018-04-24T08:01:50.610Z,4.70
2018-04-24T08:02:50.620Z,5.60
2018-04-24T08:03:50.620Z,5.70
2018-04-24T08:04:50.657Z,6.80
2018-04-24T08:05:51.223Z,5.20
2018-04-24T08:06:50.626Z,4.40
2018-04-24T08:07:50.626Z,4.20
2018-04-24T08:08:50.639Z,4.00
2018-04-24T08:09:50.636Z,4.40
2018-04-24T08:10:50.635Z,4.20
2018-04-24T08:11:50.635Z,4.10
2018-04-24T08:12:50.641Z,4.40
2018-04-24T08:13:50.642Z,3.70
2018-04-24T08:14:50.648Z,3.90
2018-04-24T08:15:50.643Z,4.30
2018-04-24T08:16:50.645Z,4.00
2018-04-24T08:17:50.650Z,4.00
2018-04-24T08:18:50.649Z,4.00
2018-04-24T08:19:50.663Z,7.20
2018-04-24T08:20:50.660Z,10.70
2018-04-24T08:21:50.672Z,4.40
2018-04-24T08:22:50.678Z,4.50
2018-04-24T08:23:50.662Z,4.30
2018-04-24T08:24:50.664Z,3.50
2018-04-24T08:25:50.671Z,4.70
2018-04-24T08:26:50.741Z,4.90
2018-04-24T08:27:50.671Z,4.20
2018-04-24T08:28:51.189Z,2.80
2018-04-24T08:29:50.677Z,4.30
2018-04-24T08:30:52.656Z,4.40
2018-04-24T08:31:50.681Z,3.50
2018-04-24T08:32:50.708Z,2.80
2018-04-24T08:33:50.690Z,3.00
2018-04-24T08:34:50.695Z,3.10
2018-04-24T08:35:50.692Z,3.10
2018-04-24T08:36:50.697Z,2.70
2018-04-24T08:37:50.700Z,2.50
2018-04-24T08:38:50.728Z,2.60
2018-04-24T08:39:50.710Z,2.60
2018-04-24T08:40:50.716Z,2.10
2018-04-24T08:41:50.718Z,2.80
2018-04-24T08:42:50.713Z,2.50
2018-04-24T08:43:50.716Z,2.80
2018-04-24T08:44:50.718Z,2.50
2018-04-24T08:45:50.724Z,2.30
2018-04-24T08:46:50.727Z,2.20
2018-04-24T08:47:50.738Z,3.30
2018-04-24T08:48:50.737Z,2.50
2018-04-24T08:49:50.736Z,2.00
2018-04-24T08:50:50.737Z,2.50
2018-04-24T08:51:50.740Z,2.30
2018-04-24T08:52:50.744Z,2.10
2018-04-24T08:53:50.765Z,3.20
2018-04-24T08:54:50.755Z,2.10
2018-04-24T08:55:50.753Z,2.60
2018-04-24T08:56:50.764Z,2.20
2018-04-24T08:57:50.765Z,2.20
2018-04-24T08:58:50.762Z,1.80
2018-04-24T08:59:51.572Z,2.20
2018-04-24T09:00:50.772Z,3.10
2018-04-24T09:01:50.773Z,2.40
2018-04-24T09:02:50.777Z,2.50
2018-04-24T09:03:50.782Z,2.10
2018-04-24T09:04:50.794Z,2.60
2018-04-24T09:05:50.790Z,2.00
2018-04-24T09:06:50.793Z,2.10
2018-04-24T09:07:50.810Z,2.10
2018-04-24T09:08:50.803Z,2.80
2018-04-24T09:09:50.807Z,2.50
2018-04-24T09:10:50.814Z,3.10
2018-04-24T09:11:50.818Z,4.90
2018-04-24T09:12:50.824Z,2.90
2018-04-24T09:13:50.823Z,2.80
2018-04-24T09:14:50.891Z,3.00
2018-04-24T09:15:50.844Z,2.50
2018-04-24T09:16:50.832Z,2.80
2018-04-24T09:17:50.836Z,2.20
2018-04-24T09:18:50.845Z,2.30
2018-04-24T09:19:50.846Z,2.40
2018-04-24T09:20:50.893Z,2.60
2018-04-24T09:21:50.857Z,2.00
2018-04-24T09:22:50.865Z,1.90
2018-04-24T09:23:50.879Z,3.20
2018-04-24T09:24:50.862Z,4.30
2018-04-24T09:25:50.868Z,2.60
2018-04-24T09:26:50.961Z,2.20
2018-04-24T09:27:50.873Z,1.80
2018-04-24T09:28:50.882Z,2.10
2018-04-24T09:29:50.879Z,2.40
2018-04-24T09:30:50.887Z,2.10
2018-04-24T09:31:50.888Z,2.10
2018-04-24T09:32:50.890Z,2.70
2018-04-24T09:33:50.928Z,1.80
2018-04-24T09:34:50.924Z,1.90
2018-04-24T09:35:50.921Z,1.90
2018-04-24T09:36:50.908Z,1.90
2018-04-24T09:37:50.920Z,2.20
2018-04-24T09:38:50.920Z,2.30
2018-04-24T09:39:50.919Z,1.70
2018-04-24T09:40:50.922Z,2.00
2018-04-24T09:41:50.926Z,2.20
2018-04-24T09:42:50.930Z,2.50
2018-04-24T09:43:50.980Z,2.10
2018-04-24T09:44:50.949Z,2.20
2018-04-24T09:45:51.025Z,2.90
2018-04-24T09:46:50.953Z,2.20
2018-04-24T09:47:50.954Z,2.20
2018-04-24T09:48:50.958Z,2.00
2018-04-24T09:49:50.958Z,2.50
2018-04-24T09:50:50.966Z,2.30
2018-04-24T09:51:51.135Z,3.20
2018-04-24T09:52:50.986Z,2.20
2018-04-24T09:53:50.978Z,2.50
2018-04-24T09:54:50.976Z,2.40
2018-04-24T09:55:50.978Z,2.80
2018-04-24T09:56:51.363Z,3.00
2018-04-24T09:57:50.989Z,2.20
2018-04-24T09:58:50.998Z,3.30
2018-04-24T09:59:50.998Z,3.00
2018-04-24T10:00:51.003Z,3.50
2018-04-24T10:01:51.006Z,7.20
2018-04-24T10:02:51.007Z,29.80
2018-04-24T10:03:51.008Z,8.10
2018-04-24T10:04:51.014Z,6.20
2018-04-24T10:05:51.015Z,3.60
2018-04-24T10:06:51.031Z,16.60
2018-04-24T10:07:51.082Z,6.80
2018-04-24T10:08:51.032Z,2.10
2018-04-24T10:09:51.114Z,3.30
2018-04-24T10:10:51.041Z,2.10
2018-04-24T10:11:51.043Z,2.10
2018-04-24T10:12:51.053Z,2.00
2018-04-24T10:13:51.056Z,3.80
2018-04-24T10:14:51.081Z,2.60
2018-04-24T10:15:52.705Z,3.00
2018-04-24T10:16:52.688Z,2.50
2018-04-24T10:17:51.094Z,2.20
2018-04-24T10:18:51.092Z,2.00
2018-04-24T10:19:52.715Z,2.10
2018-04-24T10:20:51.111Z,1.90
2018-04-24T10:21:51.088Z,1.90
2018-04-24T10:22:51.091Z,2.10
2018-04-24T10:23:52.692Z,1.90
2018-04-24T10:24:51.121Z,2.00
2018-04-24T10:25:51.119Z,2.20
2018-04-24T10:26:51.330Z,2.30
2018-04-24T10:27:51.142Z,2.40
2018-04-24T10:28:51.116Z,2.50
2018-04-24T10:29:51.128Z,2.50
2018-04-24T10:30:51.147Z,2.80
2018-04-24T10:31:51.416Z,3.20
2018-04-24T10:32:51.150Z,2.00
2018-04-24T10:33:51.146Z,2.20
2018-04-24T10:34:51.148Z,2.10
2018-04-24T10:35:51.152Z,2.30
2018-04-24T10:36:51.155Z,2.70
2018-04-24T10:37:51.161Z,2.30
2018-04-24T10:38:51.172Z,2.30
2018-04-24T10:39:51.186Z,2.60
2018-04-24T10:40:51.184Z,2.50
2018-04-24T10:41:51.223Z,2.30
2018-04-24T10:42:51.194Z,2.50
2018-04-24T10:43:51.274Z,2.10
2018-04-24T10:44:51.204Z,2.00
2018-04-24T10:45:51.200Z,2.10
2018-04-24T10:46:51.207Z,2.70
2018-04-24T10:47:51.212Z,3.10
2018-04-24T10:48:51.227Z,2.00
2018-04-24T10:49:51.223Z,2.10
2018-04-24T10:50:51.229Z,1.60
2018-04-24T10:51:51.390Z,2.40
2018-04-24T10:52:51.294Z,1.80
2018-04-24T10:53:51.241Z,1.70
2018-04-24T10:54:51.371Z,2.80
2018-04-24T10:55:51.256Z,1.80
2018-04-24T10:56:51.260Z,1.80
2018-04-24T10:57:51.279Z,1.70
2018-04-24T10:58:51.276Z,1.80
2018-04-24T10:59:51.281Z,3.90
2018-04-24T11:00:51.282Z,7.60
2018-04-24T11:01:51.286Z,2.70
2018-04-24T11:02:51.312Z,2.20
2018-04-24T11:03:51.343Z,2.00
2018-04-24T11:04:51.317Z,2.10
2018-04-24T11:05:51.420Z,2.00
2018-04-24T11:06:51.365Z,2.20
2018-04-24T11:07:51.400Z,1.80
2018-04-24T11:08:51.391Z,2.50
2018-04-24T11:09:51.377Z,1.80
2018-04-24T11:10:51.389Z,2.30
2018-04-24T11:11:51.422Z,2.60
2018-04-24T11:12:51.349Z,2.80
2018-04-24T11:13:51.393Z,2.30
2018-04-24T11:14:51.362Z,1.60
2018-04-24T11:15:51.388Z,1.90
2018-04-24T11:16:51.377Z,2.50
2018-04-24T11:17:51.390Z,2.20
2018-04-24T11:18:51.433Z,1.10
2018-04-24T11:19:51.429Z,1.60
2018-04-24T11:20:51.424Z,1.80
2018-04-24T11:21:51.419Z,1.50
2018-04-24T11:22:51.438Z,2.30
2018-04-24T11:23:51.439Z,2.20
2018-04-24T11:24:51.427Z,2.40
2018-04-24T11:25:51.497Z,2.60
2018-04-24T11:26:51.453Z,2.40
2018-04-24T11:27:51.447Z,2.30
2018-04-24T11:28:51.436Z,2.80
2018-04-24T11:29:51.429Z,3.80
2018-04-24T11:30:51.431Z,3.10
2018-04-24T11:31:51.439Z,2.60
2018-04-24T11:32:51.454Z,2.00
2018-04-24T11:33:51.566Z,2.00
2018-04-24T11:34:51.448Z,2.70
2018-04-24T11:35:51.515Z,4.30
2018-04-24T11:36:51.465Z,1.90
2018-04-24T11:37:51.468Z,3.90
2018-04-24T11:38:51.474Z,4.00
2018-04-24T11:39:51.478Z,2.00
2018-04-24T11:40:51.482Z,2.40
2018-04-24T11:41:51.501Z,2.50
2018-04-24T11:42:51.491Z,2.20
2018-04-24T11:43:51.511Z,1.80
2018-04-24T11:44:51.503Z,2.30
2018-04-24T11:45:51.509Z,2.00
2018-04-24T11:46:51.511Z,2.00
2018-04-24T11:47:51.535Z,2.80
2018-04-24T11:48:51.524Z,3.90
2018-04-24T11:49:51.527Z,2.10
2018-04-24T11:50:51.534Z,1.90
2018-04-24T11:51:51.541Z,3.00
2018-04-24T11:52:51.543Z,1.70
2018-04-24T11:53:51.548Z,1.90
2018-04-24T11:54:51.562Z,2.40
2018-04-24T11:55:51.559Z,5.70
2018-04-24T11:56:51.588Z,2.10
2018-04-24T11:57:51.573Z,2.40
2018-04-24T11:58:51.580Z,2.10
2018-04-24T11:59:51.582Z,2.40
2018-04-24T12:00:51.594Z,2.30
2018-04-24T12:01:51.613Z,2.20
2018-04-24T12:02:51.609Z,1.70
2018-04-24T12:03:51.727Z,1.40
2018-04-24T12:04:52.032Z,1.60
2018-04-24T12:05:51.611Z,2.10
2018-04-24T12:06:51.616Z,1.70
2018-04-24T12:07:51.624Z,1.80
2018-04-24T12:08:51.660Z,2.30
2018-04-24T12:09:51.633Z,1.90
2018-04-24T12:10:51.714Z,2.20
2018-04-24T12:11:51.643Z,1.70
2018-04-24T12:12:52.070Z,1.90
2018-04-24T12:13:51.651Z,1.40
2018-04-24T12:14:51.702Z,1.50
2018-04-24T12:15:51.666Z,2.20
2018-04-24T12:16:51.668Z,13.20
2018-04-24T12:17:51.671Z,2.20
2018-04-24T12:18:51.676Z,1.70
2018-04-24T12:19:51.714Z,7.50
2018-04-24T12:20:51.689Z,2.20
2018-04-24T12:21:51.693Z,2.00
2018-04-24T12:22:51.694Z,1.50
2018-04-24T12:23:51.706Z,4.20
2018-04-24T12:24:51.708Z,1.70
2018-04-24T12:25:51.714Z,2.90
2018-04-24T12:26:51.717Z,2.60
2018-04-24T12:27:51.729Z,1.50
2018-04-24T12:28:51.728Z,1.70
2018-04-24T12:29:51.732Z,1.90
2018-04-24T12:30:51.748Z,1.40
2018-04-24T12:31:51.742Z,1.30
2018-04-24T12:32:51.841Z,1.30
2018-04-24T12:33:51.838Z,3.10
2018-04-24T12:34:51.786Z,1.70
2018-04-24T12:35:52.452Z,2.00
2018-04-24T12:36:51.766Z,2.80
2018-04-24T12:37:51.778Z,4.10
2018-04-24T12:38:51.869Z,4.30
2018-04-24T12:39:51.784Z,1.30
2018-04-24T12:40:51.789Z,1.00
2018-04-24T12:41:51.799Z,1.20
2018-04-24T12:42:51.803Z,1.60
2018-04-24T12:43:51.812Z,3.20
2018-04-24T12:44:51.806Z,5.10
2018-04-24T12:45:51.810Z,1.30
2018-04-24T12:46:51.829Z,2.20
2018-04-24T12:47:51.822Z,2.00
2018-04-24T12:48:51.827Z,1.40
2018-04-24T12:49:51.830Z,1.80
2018-04-24T12:50:51.843Z,1.30
2018-04-24T12:51:51.940Z,2.20
2018-04-24T12:52:51.845Z,1.50
2018-04-24T12:53:51.850Z,2.30
2018-04-24T12:54:51.858Z,2.30
2018-04-24T12:55:51.860Z,2.10
2018-04-24T12:56:51.873Z,21.40
2018-04-24T12:57:51.878Z,4.10
2018-04-24T12:58:51.877Z,1.60
2018-04-24T12:59:51.881Z,1.80
2018-04-24T13:00:51.908Z,1.80
2018-04-24T13:01:51.892Z,1.10
2018-04-24T13:02:51.901Z,1.20
2018-04-24T13:03:51.948Z,1.60